createdAt,value
2023-02-14T00:00:02.328Z,3.80
2023-02-14T00:02:36.462Z,3.80
2023-02-14T00:05:58.264Z,3.90
2023-02-14T00:08:30.950Z,3.90
2023-02-14T00:11:06.392Z,3.80
2023-02-14T00:13:39.996Z,3.80
2023-02-14T00:16:14.245Z,3.80
2023-02-14T00:19:11.773Z,3.70
2023-02-14T00:21:42.443Z,3.70
2023-02-14T00:24:18.062Z,3.70
2023-02-14T00:26:51.965Z,3.70
2023-02-14T00:29:35.100Z,3.70
2023-02-14T00:32:07.107Z,3.80
2023-02-14T00:34:38.235Z,3.80
2023-02-14T00:37:07.923Z,3.70
2023-02-14T00:39:39.050Z,3.70
2023-02-14T00:42:11.421Z,3.60
2023-02-14T00:44:44.722Z,3.60
2023-02-14T00:47:14.027Z,3.60
2023-02-14T00:49:46.222Z,3.70
2023-02-14T00:52:17.842Z,3.70
2023-02-14T00:54:51.152Z,3.60
2023-02-14T00:57:24.430Z,3.60
2023-02-14T00:59:55.057Z,3.60
2023-02-14T01:02:24.341Z,3.50
2023-02-14T01:04:55.415Z,3.60
2023-02-14T01:07:26.856Z,3.60
2023-02-14T01:09:58.609Z,3.60
2023-02-14T01:12:28.148Z,3.50
2023-02-14T01:15:01.818Z,3.50
2023-02-14T01:17:33.535Z,3.40
2023-02-14T01:20:07.176Z,3.40
2023-02-14T01:22:42.604Z,3.40
2023-02-14T01:25:12.454Z,3.30
2023-02-14T01:27:42.289Z,3.30
2023-02-14T01:30:15.225Z,3.30
2023-02-14T01:32:45.663Z,3.30
2023-02-14T01:35:14.040Z,3.30
2023-02-14T01:37:45.495Z,3.30
2023-02-14T01:40:21.244Z,3.30
2023-02-14T01:42:55.464Z,3.30
2023-02-14T01:45:32.469Z,3.30
2023-02-14T01:48:02.637Z,3.30
2023-02-14T01:50:41.494Z,3.30
2023-02-14T01:53:23.379Z,3.30
2023-02-14T01:56:01.855Z,3.30
2023-02-14T01:58:39.801Z,3.30
2023-02-14T02:01:12.200Z,3.20
2023-02-14T02:03:53.762Z,3.20
2023-02-14T02:06:34.434Z,3.20
2023-02-14T02:09:21.544Z,3.20
2023-02-14T02:11:52.598Z,3.20
2023-02-14T02:14:27.844Z,3.20
2023-02-14T02:17:29.394Z,3.20
2023-02-14T02:20:38.934Z,3.20
2023-02-14T02:23:29.438Z,3.20
2023-02-14T02:26:34.374Z,3.20
2023-02-14T02:29:36.849Z,3.10
2023-02-14T02:32:40.558Z,3.20
2023-02-14T02:35:37.722Z,3.20
2023-02-14T02:38:40.591Z,3.20
2023-02-14T02:41:20.200Z,3.20
2023-02-14T02:44:12.635Z,3.20
2023-02-14T02:46:49.375Z,3.20
2023-02-14T02:50:18.868Z,3.20
2023-02-14T02:53:16.118Z,3.10
2023-02-14T02:56:14.519Z,3.00
2023-02-14T02:59:07.258Z,3.00
2023-02-14T03:01:43.980Z,3.00
2023-02-14T03:04:35.994Z,3.00
2023-02-14T03:07:36.298Z,3.00
2023-02-14T03:10:21.869Z,3.00
2023-02-14T03:13:15.758Z,3.00
2023-02-14T03:16:14.291Z,3.00
2023-02-14T03:19:02.893Z,2.80
2023-02-14T03:21:52.695Z,2.80
2023-02-14T03:24:42.577Z,2.80
2023-02-14T03:27:42.059Z,2.80
2023-02-14T03:30:28.323Z,2.80
2023-02-14T03:33:11.070Z,2.70
2023-02-14T03:36:03.355Z,2.70
2023-02-14T03:38:57.600Z,2.70
2023-02-14T03:41:32.354Z,2.70
2023-02-14T03:44:12.350Z,2.70
2023-02-14T03:46:57.147Z,2.70
2023-02-14T03:49:34.430Z,2.70
2023-02-14T03:52:05.173Z,2.70
2023-02-14T03:54:38.561Z,2.70
2023-02-14T03:57:53.948Z,2.70
2023-02-14T04:00:26.635Z,2.70
2023-02-14T04:03:03.921Z,2.70
2023-02-14T04:05:38.137Z,2.70
2023-02-14T04:08:09.581Z,2.70
2023-02-14T04:10:51.164Z,2.70
2023-02-14T04:13:22.561Z,2.70
2023-02-14T04:15:54.715Z,2.70
2023-02-14T04:18:43.634Z,2.80
2023-02-14T04:21:15.707Z,2.80
2023-02-14T04:23:46.538Z,2.80
2023-02-14T04:26:17.384Z,2.80
2023-02-14T04:28:54.065Z,2.70
2023-02-14T04:31:27.471Z,2.70
2023-02-14T04:34:03.719Z,2.70
2023-02-14T04:36:33.932Z,2.70
2023-02-14T04:39:09.684Z,2.60
2023-02-14T04:41:40.518Z,2.60
2023-02-14T04:44:11.661Z,2.60
2023-02-14T04:46:42.366Z,2.60
2023-02-14T04:49:14.566Z,2.60
2023-02-14T04:51:47.245Z,2.60
2023-02-14T04:54:19.928Z,2.60
2023-02-14T04:56:54.136Z,2.60
2023-02-14T04:59:25.193Z,2.50
2023-02-14T05:01:58.329Z,2.50
2023-02-14T05:04:32.282Z,2.50
2023-02-14T05:07:04.244Z,2.50
2023-02-14T05:09:35.998Z,2.50
2023-02-14T05:12:05.276Z,2.40
2023-02-14T05:14:34.296Z,2.30
2023-02-14T05:17:08.826Z,2.30
2023-02-14T05:19:41.503Z,2.30
2023-02-14T05:22:12.290Z,2.40
2023-02-14T05:24:44.324Z,2.40
2023-02-14T05:27:14.618Z,2.40
2023-02-14T05:29:43.918Z,2.30
2023-02-14T05:32:15.470Z,2.30
2023-02-14T05:34:48.361Z,2.30
2023-02-14T05:37:24.416Z,2.30
2023-02-14T05:39:55.867Z,2.30
2023-02-14T05:42:29.769Z,2.30
2023-02-14T05:45:01.237Z,2.30
2023-02-14T05:47:33.911Z,2.30
2023-02-14T05:50:07.818Z,2.40
2023-02-14T05:52:42.604Z,2.30
2023-02-14T05:55:12.523Z,2.30
2023-02-14T05:57:44.028Z,2.20
2023-02-14T06:00:16.086Z,2.20
2023-02-14T06:02:46.916Z,2.30
2023-02-14T06:05:18.671Z,2.30
2023-02-14T06:07:54.125Z,2.30
2023-02-14T06:10:34.482Z,2.30
2023-02-14T06:13:12.371Z,2.30
2023-02-14T06:15:44.682Z,2.30
2023-02-14T06:18:16.516Z,2.30
2023-02-14T06:20:47.051Z,2.30
2023-02-14T06:23:20.957Z,2.40
2023-02-14T06:25:53.946Z,2.50
2023-02-14T06:28:28.460Z,2.60
2023-02-14T06:31:02.456Z,2.70
2023-02-14T06:33:35.922Z,2.90
2023-02-14T06:36:07.118Z,2.90
2023-02-14T06:38:44.716Z,3.00
2023-02-14T06:41:21.079Z,3.00
2023-02-14T06:43:53.759Z,3.00
2023-02-14T06:46:29.243Z,3.10
2023-02-14T06:49:03.727Z,3.10
2023-02-14T06:51:34.263Z,3.20
2023-02-14T06:54:04.481Z,3.40
2023-02-14T06:56:36.768Z,3.50
2023-02-14T06:59:10.453Z,3.60
2023-02-14T07:01:46.586Z,3.70
2023-02-14T07:04:20.067Z,3.90
2023-02-14T07:06:54.318Z,4.10
2023-02-14T07:09:27.617Z,4.30
2023-02-14T07:12:01.221Z,4.40
2023-02-14T07:14:33.951Z,4.70
2023-02-14T07:17:04.740Z,4.90
2023-02-14T07:19:35.569Z,5.10
2023-02-14T07:22:11.333Z,5.10
2023-02-14T07:24:44.632Z,5.20
2023-02-14T07:27:19.407Z,5.10
2023-02-14T07:29:55.219Z,5.10
2023-02-14T07:32:24.923Z,5.20
2023-02-14T07:34:56.263Z,5.30
2023-02-14T07:37:28.019Z,5.30
2023-02-14T07:40:01.924Z,5.20
2023-02-14T07:42:34.604Z,5.20
2023-02-14T07:45:20.782Z,5.20
2023-02-14T07:47:56.863Z,5.20
2023-02-14T07:50:24.557Z,5.00
2023-02-14T07:52:54.446Z,4.80
2023-02-14T07:55:27.227Z,4.80
2023-02-14T07:58:00.519Z,4.80
2023-02-14T08:00:36.270Z,4.80
2023-02-14T08:03:10.174Z,4.80
2023-02-14T08:05:44.382Z,4.90
2023-02-14T08:08:23.820Z,4.70
2023-02-14T08:10:56.520Z,4.40
2023-02-14T08:13:26.742Z,4.30
2023-02-14T08:16:10.203Z,4.20
2023-02-14T08:18:51.441Z,4.20
2023-02-14T08:21:23.807Z,4.20
2023-02-14T08:24:03.553Z,4.10
2023-02-14T08:26:35.923Z,4.10
2023-02-14T08:29:05.225Z,4.10
2023-02-14T08:31:36.832Z,4.20
2023-02-14T08:34:07.208Z,4.20
2023-02-14T08:36:42.170Z,4.30
2023-02-14T08:39:12.537Z,4.30
2023-02-14T08:41:46.786Z,4.40
2023-02-14T08:44:20.688Z,4.40
2023-02-14T08:46:54.053Z,4.50
2023-02-14T08:49:25.438Z,4.60
2023-02-14T08:52:02.416Z,4.60
2023-02-14T08:54:31.410Z,4.60
2023-02-14T08:57:09.018Z,4.60
2023-02-14T08:59:41.422Z,4.60
2023-02-14T09:02:15.901Z,4.60
2023-02-14T09:04:51.046Z,4.60
2023-02-14T09:07:25.250Z,4.60
2023-02-14T09:09:54.517Z,4.60
2023-02-14T09:12:29.391Z,4.60
2023-02-14T09:14:59.623Z,4.60
2023-02-14T09:17:35.106Z,4.60
2023-02-14T09:20:09.617Z,4.60
2023-02-14T09:22:43.780Z,4.70
2023-02-14T09:25:15.557Z,4.70
2023-02-14T09:27:47.618Z,4.80
2023-02-14T09:30:20.628Z,4.80
2023-02-14T09:32:53.897Z,4.80
2023-02-14T09:35:27.815Z,4.80
2023-02-14T09:38:19.837Z,4.80
2023-02-14T09:40:53.364Z,4.80
2023-02-14T09:43:51.617Z,4.80
2023-02-14T09:46:25.224Z,4.80
2023-02-14T09:48:58.582Z,4.70
2023-02-14T09:51:34.569Z,4.70
2023-02-14T09:54:20.765Z,4.70
2023-02-14T09:57:14.344Z,4.80
2023-02-14T10:00:23.933Z,4.90
2023-02-14T10:03:25.060Z,4.80
2023-02-14T10:06:06.079Z,4.80
2023-02-14T10:08:51.387Z,4.80
2023-02-14T10:11:28.670Z,4.90
2023-02-14T10:14:07.183Z,5.00
2023-02-14T10:16:54.405Z,5.00
2023-02-14T10:19:35.281Z,5.00
2023-02-14T10:22:26.699Z,5.00
2023-02-14T10:25:14.644Z,5.20
2023-02-14T10:27:52.133Z,5.10
2023-02-14T10:30:32.261Z,5.00
2023-02-14T10:33:24.113Z,4.90
2023-02-14T10:36:14.390Z,4.90
2023-02-14T10:38:54.658Z,4.90
2023-02-14T10:41:56.526Z,4.90
2023-02-14T10:44:49.176Z,5.00
2023-02-14T10:48:01.182Z,5.10
2023-02-14T10:51:03.969Z,5.20
2023-02-14T10:53:40.326Z,5.20
2023-02-14T10:56:42.449Z,5.20
2023-02-14T10:59:40.678Z,5.20
2023-02-14T11:02:20.725Z,5.30
2023-02-14T11:04:51.230Z,5.40
2023-02-14T11:07:27.621Z,5.50
2023-02-14T11:10:02.440Z,5.50
2023-02-14T11:12:38.819Z,5.50
2023-02-14T11:15:24.713Z,5.50
2023-02-14T11:18:34.258Z,5.60
2023-02-14T11:21:20.760Z,5.60
2023-02-14T11:23:55.589Z,5.60
2023-02-14T11:26:34.106Z,5.50
2023-02-14T11:29:21.528Z,5.50
2023-02-14T11:31:53.619Z,5.60
2023-02-14T11:34:34.883Z,5.60
2023-02-14T11:37:21.996Z,5.60
2023-02-14T11:39:58.058Z,5.60
2023-02-14T11:42:39.030Z,5.70
2023-02-14T11:45:31.382Z,5.80
2023-02-14T11:48:36.585Z,5.90
2023-02-14T11:51:19.431Z,5.80
2023-02-14T11:53:54.571Z,5.80
2023-02-14T11:56:43.824Z,5.90
2023-02-14T11:59:23.890Z,6.10
2023-02-14T12:01:55.652Z,5.90
2023-02-14T12:04:46.305Z,5.80
2023-02-14T12:07:18.524Z,5.80
2023-02-14T12:09:53.963Z,5.90
2023-02-14T12:12:31.556Z,5.90
2023-02-14T12:15:27.631Z,6.00
2023-02-14T12:18:14.699Z,6.00
2023-02-14T12:21:10.728Z,6.00
2023-02-14T12:24:03.377Z,6.00
2023-02-14T12:26:41.894Z,6.10
2023-02-14T12:29:40.690Z,6.20
2023-02-14T12:32:33.641Z,6.10
2023-02-14T12:35:19.835Z,6.00
2023-02-14T12:38:10.952Z,6.00
2023-02-14T12:40:47.542Z,5.90
2023-02-14T12:43:49.179Z,5.80
2023-02-14T12:46:32.207Z,5.80
2023-02-14T12:49:13.536Z,5.80
2023-02-14T12:52:05.923Z,5.70
2023-02-14T12:54:44.135Z,5.70
2023-02-14T12:57:24.186Z,5.70
2023-02-14T13:00:15.396Z,5.70
2023-02-14T13:03:18.126Z,5.60
2023-02-14T13:06:07.350Z,5.60
2023-02-14T13:08:44.651Z,5.50
2023-02-14T13:11:32.536Z,5.50
2023-02-14T13:14:09.353Z,5.40
2023-02-14T13:17:12.404Z,5.30
2023-02-14T13:20:03.865Z,5.20
2023-02-14T13:22:39.930Z,5.20
2023-02-14T13:25:35.953Z,5.20
2023-02-14T13:28:08.635Z,5.20
2023-02-14T13:30:45.976Z,5.20
2023-02-14T13:33:35.101Z,5.10
2023-02-14T13:36:12.434Z,5.00
2023-02-14T13:41:34.752Z,4.90
2023-02-14T13:44:09.253Z,4.90
2023-02-14T13:46:52.761Z,4.80
2023-02-14T13:49:33.038Z,4.80
2023-02-14T13:52:11.562Z,4.70
2023-02-14T13:54:53.104Z,4.60
2023-02-14T13:57:41.489Z,4.50
2023-02-14T14:00:20.932Z,4.50
2023-02-14T14:03:02.438Z,4.40
2023-02-14T14:05:36.119Z,4.40
2023-02-14T14:08:51.811Z,4.20
2023-02-14T14:11:24.180Z,4.10
2023-02-14T14:14:08.531Z,3.90
2023-02-14T14:16:42.431Z,3.80
2023-02-14T14:19:33.536Z,3.70
2023-02-14T14:22:04.405Z,3.60
2023-02-14T14:24:39.536Z,3.50
2023-02-14T14:27:25.112Z,3.50
2023-02-14T14:30:08.562Z,3.40
2023-02-14T14:32:42.396Z,3.30
2023-02-14T14:35:20.654Z,3.20
2023-02-14T14:37:59.486Z,3.20
2023-02-14T14:40:33.696Z,3.10
2023-02-14T14:43:21.431Z,3.10
2023-02-14T14:45:55.411Z,3.00
2023-02-14T14:48:54.438Z,2.90
2023-02-14T14:51:34.186Z,2.80
2023-02-14T14:54:17.007Z,2.70
2023-02-14T14:57:04.444Z,2.70
2023-02-14T14:59:42.215Z,2.60
2023-02-14T15:02:32.953Z,2.60
2023-02-14T15:05:26.712Z,2.60
2023-02-14T15:08:02.420Z,2.50
2023-02-14T15:10:33.610Z,2.40
2023-02-14T15:13:24.107Z,2.40
2023-02-14T15:15:54.026Z,2.30
2023-02-14T15:18:27.629Z,2.20
2023-02-14T15:20:59.595Z,2.20
2023-02-14T15:23:32.672Z,2.10
2023-02-14T15:26:02.165Z,2.00
2023-02-14T15:28:37.748Z,1.90
2023-02-14T15:31:09.942Z,1.80
2023-02-14T15:33:43.706Z,1.70
2023-02-14T15:36:28.673Z,1.60
2023-02-14T15:39:02.059Z,1.50
2023-02-14T15:41:33.744Z,1.50
2023-02-14T15:44:09.171Z,1.40
2023-02-14T15:46:43.690Z,1.40
2023-02-14T15:49:30.816Z,1.30
2023-02-14T15:52:10.559Z,1.30
2023-02-14T15:54:48.154Z,1.20
2023-02-14T15:57:32.152Z,1.20
2023-02-14T16:00:03.644Z,1.10
2023-02-14T16:02:42.190Z,1.00
2023-02-14T16:05:22.194Z,1.00
2023-02-14T16:08:10.565Z,0.90
2023-02-14T16:10:44.153Z,0.80
2023-02-14T16:13:21.751Z,0.70
2023-02-14T16:16:10.442Z,0.60
2023-02-14T16:18:48.300Z,0.50
2023-02-14T16:21:32.963Z,0.40
2023-02-14T16:24:09.952Z,0.30
2023-02-14T16:26:44.466Z,0.20
2023-02-14T16:29:20.223Z,0.10
2023-02-14T16:32:17.936Z,0.10
2023-02-14T16:34:52.015Z,0.00
2023-02-14T16:37:38.808Z,-0.10
2023-02-14T16:40:16.101Z,-0.10
2023-02-14T16:42:47.556Z,-0.20
2023-02-14T16:45:19.916Z,-0.30
2023-02-14T16:47:53.211Z,-0.40
2023-02-14T16:50:23.581Z,-0.40
2023-02-14T16:53:00.107Z,-0.40
2023-02-14T16:55:34.022Z,-0.50
2023-02-14T16:58:04.768Z,-0.60
2023-02-14T17:00:35.696Z,-0.60
2023-02-14T17:03:08.539Z,-0.60
2023-02-14T17:05:43.817Z,-0.70
2023-02-14T17:08:22.639Z,-0.60
2023-02-14T17:10:56.557Z,-0.70
2023-02-14T17:13:30.773Z,-0.70
2023-02-14T17:16:04.085Z,-0.80
2023-02-14T17:18:37.972Z,-0.80
2023-02-14T17:21:10.124Z,-0.90
2023-02-14T17:23:44.252Z,-1.00
2023-02-14T17:26:16.986Z,-1.00
2023-02-14T17:28:49.616Z,-1.10
2023-02-14T17:31:23.638Z,-1.10
2023-02-14T17:33:54.971Z,-1.20
2023-02-14T17:36:27.043Z,-1.20
2023-02-14T17:39:03.409Z,-1.20
2023-02-14T17:41:36.383Z,-1.20
2023-02-14T17:44:13.675Z,-1.30
2023-02-14T17:46:48.440Z,-1.30
2023-02-14T17:49:18.730Z,-1.30
2023-02-14T17:51:52.012Z,-1.30
2023-02-14T17:54:31.772Z,-1.30
2023-02-14T17:57:02.157Z,-1.30
2023-02-14T17:59:33.445Z,-1.30
2023-02-14T18:02:05.537Z,-1.40
2023-02-14T18:04:40.033Z,-1.40
2023-02-14T18:07:13.143Z,-1.40
2023-02-14T18:09:44.474Z,-1.40
2023-02-14T18:12:16.243Z,-1.40
2023-02-14T18:14:53.746Z,-1.40
2023-02-14T18:17:24.660Z,-1.40
2023-02-14T18:19:56.421Z,-1.40
2023-02-14T18:22:33.710Z,-1.40
2023-02-14T18:25:04.236Z,-1.40
2023-02-14T18:27:34.157Z,-1.30
2023-02-14T18:30:05.630Z,-1.30
2023-02-14T18:32:38.898Z,-1.30
2023-02-14T18:35:13.423Z,-1.20
2023-02-14T18:37:49.827Z,-1.20
2023-02-14T18:40:24.923Z,-1.10
2023-02-14T18:42:58.517Z,-1.10
2023-02-14T18:45:32.100Z,-1.10
2023-02-14T18:48:02.953Z,-1.00
2023-02-14T18:50:34.404Z,-0.80
2023-02-14T18:53:04.017Z,-0.80
2023-02-14T18:55:35.124Z,-0.80
2023-02-14T18:58:07.700Z,-0.80
2023-02-14T19:00:39.014Z,-0.80
2023-02-14T20:03:11.162Z,-1.90
2023-02-14T20:05:42.293Z,-1.90
2023-02-14T20:08:13.692Z,-2.00
2023-02-14T20:10:49.809Z,-2.00
2023-02-14T20:13:19.732Z,-2.10
2023-02-14T20:15:54.566Z,-2.10
2023-02-14T20:18:25.081Z,-2.10
2023-02-14T20:21:08.518Z,-2.10
2023-02-14T20:23:41.972Z,-2.20
2023-02-14T20:26:18.393Z,-2.20
2023-02-14T20:29:10.832Z,-2.20
2023-02-14T20:31:51.336Z,-2.20
2023-02-14T20:34:23.818Z,-2.10
2023-02-14T20:36:59.348Z,-2.10
2023-02-14T20:39:38.455Z,-2.10
2023-02-14T20:42:11.973Z,-2.00
2023-02-14T20:44:42.063Z,-1.90
2023-02-14T20:47:13.933Z,-1.90
2023-02-14T20:49:52.109Z,-1.80
2023-02-14T20:52:23.995Z,-1.70
2023-02-14T20:54:54.475Z,-1.60
2023-02-14T20:57:26.627Z,-1.50
2023-02-14T21:00:01.419Z,-1.40
2023-02-14T21:02:30.998Z,-1.30
2023-02-14T21:05:03.714Z,-1.30
2023-02-14T21:07:35.153Z,-1.30
2023-02-14T21:10:07.831Z,-1.20
2023-02-14T21:12:41.439Z,-1.20
2023-02-14T21:15:12.898Z,-1.20
2023-02-14T21:17:45.262Z,-1.10
2023-02-14T21:20:15.175Z,-1.10
2023-02-14T21:22:46.320Z,-1.00
2023-02-14T21:25:18.082Z,-1.00
2023-02-14T21:27:53.529Z,-1.00
2023-02-14T21:30:27.181Z,-0.90
2023-02-14T21:33:03.485Z,-0.90
2023-02-14T21:35:32.059Z,-0.80
2023-02-14T21:38:03.941Z,-0.80
2023-02-14T21:40:34.775Z,-0.70
2023-02-14T21:43:05.619Z,-0.70
2023-02-14T21:45:54.459Z,-0.70
2023-02-14T21:48:45.991Z,-0.70
2023-02-14T21:51:16.841Z,-0.70
2023-02-14T21:53:49.217Z,-0.70
2023-02-14T21:56:23.734Z,-0.70
2023-02-14T21:59:00.097Z,-0.60
2023-02-14T22:01:33.047Z,-0.60
2023-02-14T22:04:12.047Z,-0.50
2023-02-14T22:06:43.986Z,-0.50
2023-02-14T22:09:21.256Z,-0.40
2023-02-14T22:11:50.863Z,-0.40
2023-02-14T22:14:21.389Z,-0.40
2023-02-14T22:16:53.780Z,-0.40
2023-02-14T22:19:26.129Z,-0.40
2023-02-14T22:22:02.493Z,-0.50
2023-02-14T22:24:44.591Z,-0.50
